createdAt,value
2022-10-31T00:01:00.678Z,10.70
2022-10-31T00:03:39.532Z,10.71
2022-10-31T00:06:06.772Z,10.72
2022-10-31T00:08:33.829Z,10.72
2022-10-31T00:11:01.018Z,10.71
2022-10-31T00:13:28.130Z,10.70
2022-10-31T00:15:55.300Z,10.67
2022-10-31T00:18:22.425Z,10.64
2022-10-31T00:20:49.427Z,10.60
2022-10-31T00:23:16.601Z,10.57
2022-10-31T00:25:43.704Z,10.59
2022-10-31T00:28:12.913Z,10.59
2022-10-31T00:30:40.130Z,10.60
2022-10-31T00:33:07.157Z,10.60
2022-10-31T00:35:34.396Z,10.60
2022-10-31T00:38:01.658Z,10.58
2022-10-31T00:40:28.761Z,10.56
2022-10-31T00:42:55.959Z,10.54
2022-10-31T00:45:24.147Z,10.51
2022-10-31T00:47:51.534Z,10.49
2022-10-31T00:50:18.782Z,10.47
2022-10-31T00:52:45.774Z,10.47
2022-10-31T00:55:12.979Z,10.49
2022-10-31T00:57:40.396Z,10.49
2022-10-31T01:00:08.306Z,10.49
2022-10-31T01:02:35.906Z,10.48
2022-10-31T01:05:03.312Z,10.47
2022-10-31T01:07:30.346Z,10.46
2022-10-31T01:09:57.457Z,10.46
2022-10-31T01:12:26.565Z,10.46
2022-10-31T01:14:53.672Z,10.46
2022-10-31T01:17:20.797Z,10.48
2022-10-31T01:19:47.820Z,10.51
2022-10-31T01:22:14.917Z,10.52
2022-10-31T01:24:41.995Z,10.49
2022-10-31T01:27:09.076Z,10.50
2022-10-31T01:29:36.236Z,10.51
2022-10-31T01:32:03.435Z,10.51
2022-10-31T01:34:30.592Z,10.50
2022-10-31T01:36:57.800Z,10.52
2022-10-31T01:39:24.996Z,10.54
2022-10-31T01:41:54.279Z,10.56
2022-10-31T01:44:21.398Z,10.58
2022-10-31T01:46:59.557Z,10.60
2022-10-31T01:49:32.575Z,10.61
2022-10-31T01:52:10.874Z,10.62
2022-10-31T01:54:43.972Z,10.63
2022-10-31T01:57:14.230Z,10.62
2022-10-31T01:59:45.139Z,10.61
2022-10-31T02:02:14.094Z,10.61
2022-10-31T02:04:42.199Z,10.63
2022-10-31T02:07:17.334Z,10.63
2022-10-31T02:09:47.559Z,10.61
2022-10-31T02:12:15.940Z,10.57
2022-10-31T02:14:43.294Z,10.55
2022-10-31T02:17:10.483Z,10.54
2022-10-31T02:19:58.279Z,10.53
2022-10-31T02:22:28.484Z,10.52
2022-10-31T02:25:42.867Z,10.49
2022-10-31T02:28:28.209Z,10.45
2022-10-31T02:31:16.995Z,10.43
2022-10-31T02:33:50.698Z,10.44
2022-10-31T02:36:30.602Z,10.46
2022-10-31T02:39:00.548Z,10.47
2022-10-31T02:41:46.154Z,10.49
2022-10-31T02:44:45.657Z,10.50
2022-10-31T02:47:29.380Z,10.52
2022-10-31T02:50:09.939Z,10.50
2022-10-31T02:52:39.390Z,10.48
2022-10-31T02:55:27.917Z,10.46
2022-10-31T02:58:07.613Z,10.43
2022-10-31T03:00:48.411Z,10.43
2022-10-31T03:03:40.435Z,10.45
2022-10-31T03:06:15.638Z,10.46
2022-10-31T03:08:55.642Z,10.48
2022-10-31T03:11:29.432Z,10.48
2022-10-31T03:14:10.134Z,10.48
2022-10-31T03:16:56.517Z,10.49
2022-10-31T03:19:27.575Z,10.50
2022-10-31T03:22:05.848Z,10.49
2022-10-31T03:24:39.613Z,10.52
2022-10-31T03:27:10.981Z,10.56
2022-10-31T03:29:41.343Z,10.58
2022-10-31T03:32:24.916Z,10.56
2022-10-31T03:34:58.184Z,10.60
2022-10-31T03:37:28.110Z,10.62
2022-10-31T03:39:58.311Z,10.62
2022-10-31T03:42:28.357Z,10.64
2022-10-31T03:45:03.237Z,10.67
2022-10-31T03:47:30.713Z,10.68
2022-10-31T03:49:58.646Z,10.73
2022-10-31T03:52:38.653Z,10.79
2022-10-31T03:55:11.882Z,10.83
2022-10-31T03:57:48.298Z,10.87
2022-10-31T04:00:17.505Z,10.91
2022-10-31T04:03:10.340Z,10.93
2022-10-31T04:05:39.273Z,10.94
2022-10-31T04:08:11.022Z,10.93
2022-10-31T04:10:39.899Z,10.94
2022-10-31T04:13:11.355Z,10.93
2022-10-31T04:15:50.052Z,10.94
2022-10-31T04:18:17.627Z,10.98
2022-10-31T04:20:45.032Z,11.00
2022-10-31T04:23:23.286Z,10.99
2022-10-31T04:25:50.573Z,11.02
2022-10-31T04:30:46.316Z,11.05
2022-10-31T04:33:13.460Z,11.03
2022-10-31T04:35:41.284Z,11.03
2022-10-31T04:38:08.467Z,11.05
2022-10-31T04:40:35.812Z,11.06
2022-10-31T04:43:21.587Z,11.08
2022-10-31T04:45:49.112Z,11.11
2022-10-31T04:48:16.570Z,11.10
2022-10-31T04:50:45.253Z,11.10
2022-10-31T04:53:13.712Z,11.12
2022-10-31T04:56:01.649Z,11.14
2022-10-31T04:58:37.185Z,11.14
2022-10-31T05:01:06.607Z,11.12
2022-10-31T05:03:33.940Z,11.12
2022-10-31T05:06:01.084Z,11.11
2022-10-31T05:08:28.436Z,11.11
2022-10-31T05:10:57.355Z,11.12
2022-10-31T05:13:27.865Z,11.11
2022-10-31T05:16:13.315Z,11.10
2022-10-31T05:19:02.952Z,11.08
2022-10-31T05:22:02.551Z,11.05
2022-10-31T05:24:29.850Z,11.06
2022-10-31T05:26:56.993Z,11.08
2022-10-31T05:29:24.212Z,11.11
2022-10-31T05:31:52.171Z,11.13
2022-10-31T05:34:42.372Z,11.12
2022-10-31T05:37:32.146Z,11.11
2022-10-31T05:40:05.298Z,11.09
2022-10-31T05:42:35.480Z,11.08
2022-10-31T05:45:02.677Z,11.10
2022-10-31T05:47:57.175Z,11.12
2022-10-31T05:50:44.936Z,11.17
2022-10-31T05:53:12.498Z,11.20
2022-10-31T05:55:41.871Z,11.24
2022-10-31T05:58:14.368Z,11.27
2022-10-31T06:00:48.110Z,11.26
2022-10-31T06:03:15.846Z,11.28
2022-10-31T06:05:55.787Z,11.29
2022-10-31T06:08:25.885Z,11.31
2022-10-31T06:10:54.869Z,11.33
2022-10-31T06:13:31.007Z,11.36
2022-10-31T06:16:09.352Z,11.38
2022-10-31T06:18:37.443Z,11.42
2022-10-31T06:21:04.662Z,11.43
2022-10-31T06:23:31.756Z,11.46
2022-10-31T06:26:18.899Z,11.48
2022-10-31T06:28:46.079Z,11.48
2022-10-31T06:31:25.066Z,11.48
2022-10-31T06:33:52.668Z,11.48
2022-10-31T06:36:19.909Z,11.48
2022-10-31T06:38:47.868Z,11.51
2022-10-31T06:41:16.713Z,11.53
2022-10-31T06:43:48.294Z,11.54
2022-10-31T06:46:50.259Z,11.58
2022-10-31T06:49:35.885Z,11.60
2022-10-31T06:52:06.411Z,11.61
2022-10-31T06:54:33.552Z,11.59
2022-10-31T06:57:01.077Z,11.59
2022-10-31T06:59:28.776Z,11.56
2022-10-31T07:02:16.268Z,11.61
2022-10-31T07:04:43.691Z,11.68
2022-10-31T07:07:13.756Z,11.74
2022-10-31T07:09:41.123Z,11.82
2022-10-31T07:12:09.732Z,11.90
2022-10-31T07:14:39.192Z,11.97
2022-10-31T07:17:06.349Z,12.03
2022-10-31T07:19:37.015Z,12.10
2022-10-31T07:22:04.076Z,12.16
2022-10-31T07:24:31.606Z,12.21
2022-10-31T07:29:26.886Z,12.36
2022-10-31T07:31:53.972Z,12.43
2022-10-31T07:34:25.325Z,12.53
2022-10-31T07:37:30.840Z,12.63
2022-10-31T07:39:59.199Z,12.70
2022-10-31T07:42:26.387Z,12.75
2022-10-31T07:44:56.751Z,12.79
2022-10-31T07:47:53.313Z,12.84
2022-10-31T07:50:38.945Z,12.92
2022-10-31T07:53:32.079Z,13.00
2022-10-31T07:56:11.809Z,13.07
2022-10-31T07:58:38.845Z,13.14
2022-10-31T08:01:06.221Z,13.22
2022-10-31T08:03:39.212Z,13.30
2022-10-31T08:06:26.384Z,13.37
2022-10-31T08:08:55.924Z,13.44
2022-10-31T08:11:23.738Z,13.47
2022-10-31T08:13:50.878Z,13.50
2022-10-31T08:16:18.637Z,13.57
2022-10-31T08:18:57.899Z,13.64
2022-10-31T08:21:25.092Z,13.71
2022-10-31T08:23:52.167Z,13.76
2022-10-31T08:26:21.164Z,13.83
2022-10-31T08:28:50.921Z,13.92
2022-10-31T08:31:20.099Z,14.02
2022-10-31T08:33:47.263Z,14.08
2022-10-31T08:36:20.991Z,14.19
2022-10-31T08:39:15.082Z,14.30
2022-10-31T08:41:42.319Z,14.38
2022-10-31T08:44:12.174Z,14.44
2022-10-31T08:46:39.554Z,14.51
2022-10-31T08:49:06.779Z,14.54
2022-10-31T08:51:34.797Z,14.59
2022-10-31T08:54:01.944Z,14.66
2022-10-31T08:57:04.385Z,14.74
2022-10-31T08:59:43.429Z,14.79
2022-10-31T09:02:24.924Z,14.86
2022-10-31T09:04:54.630Z,14.89
2022-10-31T09:07:22.430Z,14.95
2022-10-31T09:09:49.571Z,14.98
2022-10-31T09:12:17.541Z,15.01
2022-10-31T09:15:07.900Z,15.03
2022-10-31T09:17:49.390Z,15.08
2022-10-31T09:20:30.591Z,15.18
2022-10-31T09:23:07.284Z,15.26
2022-10-31T09:25:36.661Z,15.34
2022-10-31T09:28:29.616Z,15.41
2022-10-31T09:30:59.589Z,15.47
2022-10-31T09:33:45.728Z,15.52
2022-10-31T09:36:42.113Z,15.61
2022-10-31T09:39:13.136Z,15.68
2022-10-31T09:42:02.372Z,15.73
2022-10-31T09:44:48.021Z,15.82
2022-10-31T09:47:53.248Z,15.94
2022-10-31T09:50:48.598Z,15.98
2022-10-31T09:53:51.396Z,16.04
2022-10-31T09:56:24.055Z,16.06
2022-10-31T09:58:59.311Z,16.06
2022-10-31T10:01:48.766Z,16.09
2022-10-31T10:04:35.276Z,16.15
2022-10-31T10:07:20.503Z,16.24
2022-10-31T10:10:22.888Z,16.25
2022-10-31T10:13:40.501Z,16.24
2022-10-31T10:16:16.060Z,16.26
2022-10-31T10:18:49.297Z,16.30
2022-10-31T10:21:53.648Z,16.37
2022-10-31T10:24:29.594Z,16.42
2022-10-31T10:27:22.368Z,16.48
2022-10-31T10:30:09.512Z,16.54
2022-10-31T10:32:52.183Z,16.61
2022-10-31T10:35:40.412Z,16.65
2022-10-31T10:38:26.047Z,16.69
2022-10-31T10:40:54.907Z,16.74
2022-10-31T10:43:28.483Z,16.76
2022-10-31T10:46:39.213Z,16.70
2022-10-31T10:49:17.994Z,16.66
2022-10-31T10:54:48.914Z,16.59
2022-10-31T10:57:22.007Z,16.59
2022-10-31T10:59:49.998Z,16.56
2022-10-31T11:02:25.471Z,16.52
2022-10-31T11:04:55.923Z,16.53
2022-10-31T11:07:23.239Z,16.56
2022-10-31T11:09:50.555Z,16.60
2022-10-31T11:12:22.681Z,16.59
2022-10-31T11:14:49.753Z,16.57
2022-10-31T11:17:31.809Z,16.52
2022-10-31T11:20:22.863Z,16.51
2022-10-31T11:22:50.444Z,16.54
2022-10-31T11:25:20.281Z,16.53
2022-10-31T11:27:47.870Z,16.51
2022-10-31T11:30:16.404Z,16.52
2022-10-31T11:32:55.057Z,16.52
2022-10-31T11:35:25.368Z,16.45
2022-10-31T11:37:55.031Z,16.41
2022-10-31T11:40:27.211Z,16.40
2022-10-31T11:42:58.540Z,16.39
2022-10-31T11:45:30.960Z,16.36
2022-10-31T11:48:00.223Z,16.34
2022-10-31T11:50:37.747Z,16.30
2022-10-31T11:53:12.464Z,16.27
2022-10-31T11:55:41.002Z,16.23
2022-10-31T11:58:27.090Z,16.22
2022-10-31T12:00:56.743Z,16.21
2022-10-31T12:03:23.837Z,16.15
2022-10-31T12:06:01.003Z,16.08
2022-10-31T12:08:32.436Z,15.99
2022-10-31T12:11:03.201Z,15.96
2022-10-31T12:13:38.630Z,15.97
2022-10-31T12:16:43.212Z,15.99
2022-10-31T12:19:39.114Z,16.00
2022-10-31T12:22:20.861Z,15.97
2022-10-31T12:25:14.153Z,15.92
2022-10-31T12:28:05.060Z,15.83
2022-10-31T12:31:09.835Z,15.81
2022-10-31T12:34:09.318Z,15.76
2022-10-31T12:36:54.528Z,15.72
2022-10-31T12:39:26.088Z,15.67
2022-10-31T12:41:57.544Z,15.60
2022-10-31T12:44:50.657Z,15.48
2022-10-31T12:47:36.146Z,15.36
2022-10-31T12:50:21.748Z,15.28
2022-10-31T12:53:10.918Z,15.23
2022-10-31T12:55:56.948Z,15.18
2022-10-31T12:58:30.314Z,15.09
2022-10-31T13:01:24.003Z,15.00
2022-10-31T13:04:04.425Z,14.92
2022-10-31T13:06:42.002Z,14.85
2022-10-31T13:09:16.727Z,14.80
2022-10-31T13:11:49.567Z,14.73
2022-10-31T13:14:25.689Z,14.64
2022-10-31T13:16:53.536Z,14.57
2022-10-31T13:19:27.429Z,14.49
2022-10-31T13:22:00.503Z,14.42
2022-10-31T13:24:37.900Z,14.39
2022-10-31T13:27:21.635Z,14.32
2022-10-31T13:30:00.559Z,14.29
2022-10-31T13:32:38.274Z,14.24
2022-10-31T13:35:08.875Z,14.17
2022-10-31T13:37:41.804Z,14.12
2022-10-31T13:40:34.390Z,14.07
2022-10-31T13:43:25.379Z,14.03
2022-10-31T13:45:54.809Z,14.02
2022-10-31T13:48:42.171Z,14.02
2022-10-31T13:51:12.010Z,14.02
2022-10-31T13:53:40.607Z,13.96
2022-10-31T13:56:10.753Z,13.93
2022-10-31T13:58:38.078Z,13.87
2022-10-31T14:01:11.438Z,13.80
2022-10-31T14:04:07.764Z,13.77
2022-10-31T14:06:55.749Z,13.79
2022-10-31T14:09:49.328Z,13.81
2022-10-31T14:12:27.259Z,13.83
2022-10-31T14:15:00.854Z,13.84
2022-10-31T14:17:35.245Z,13.82
2022-10-31T14:20:11.490Z,13.76
2022-10-31T14:22:42.802Z,13.71
2022-10-31T14:25:36.729Z,13.67
2022-10-31T14:28:20.409Z,13.65
2022-10-31T14:30:58.866Z,13.68
2022-10-31T14:33:29.329Z,13.72
2022-10-31T14:36:20.008Z,13.76
2022-10-31T14:38:57.753Z,13.82
2022-10-31T14:41:42.302Z,13.84
2022-10-31T14:44:25.551Z,13.85
2022-10-31T14:47:11.449Z,13.81
2022-10-31T14:49:44.504Z,13.79
2022-10-31T14:52:15.474Z,13.73
2022-10-31T14:54:48.175Z,13.65
2022-10-31T14:57:20.112Z,13.58
2022-10-31T14:59:51.800Z,13.56
2022-10-31T15:02:37.804Z,13.58
2022-10-31T15:05:10.120Z,13.62
2022-10-31T15:07:41.018Z,13.63
2022-10-31T15:10:22.847Z,13.63
2022-10-31T15:12:50.229Z,13.67
2022-10-31T15:15:26.802Z,13.69
2022-10-31T15:18:00.915Z,13.66
2022-10-31T15:20:31.112Z,13.65
2022-10-31T15:23:00.108Z,13.58
2022-10-31T15:25:33.513Z,13.56
2022-10-31T15:28:00.861Z,13.56
2022-10-31T15:30:31.161Z,13.58
2022-10-31T15:32:59.234Z,13.62
2022-10-31T15:35:28.764Z,13.65
2022-10-31T15:37:57.937Z,13.67
2022-10-31T15:40:27.189Z,13.66
2022-10-31T15:43:05.698Z,13.64
2022-10-31T15:45:32.858Z,13.63
2022-10-31T15:48:18.378Z,13.63
2022-10-31T15:50:58.516Z,13.59
2022-10-31T15:53:47.740Z,13.60
2022-10-31T15:56:22.585Z,13.62
2022-10-31T15:58:53.316Z,13.64
2022-10-31T16:01:24.841Z,13.67
2022-10-31T16:04:24.865Z,13.68
2022-10-31T16:07:20.191Z,13.71
2022-10-31T16:09:53.733Z,13.71
2022-10-31T16:12:22.757Z,13.68
2022-10-31T16:14:52.702Z,13.65
2022-10-31T16:17:22.755Z,13.64
2022-10-31T16:20:00.096Z,13.63
2022-10-31T16:22:33.912Z,13.61
2022-10-31T16:25:18.024Z,13.62
2022-10-31T16:27:54.587Z,13.60
2022-10-31T16:30:46.807Z,13.56
2022-10-31T16:33:22.944Z,13.49
2022-10-31T16:35:53.252Z,13.44
2022-10-31T16:38:23.509Z,13.39
2022-10-31T16:40:52.465Z,13.33
2022-10-31T16:43:23.143Z,13.31
2022-10-31T16:45:53.776Z,13.30
2022-10-31T16:48:23.581Z,13.27
2022-10-31T16:50:53.973Z,13.23
2022-10-31T16:53:21.124Z,13.21
2022-10-31T16:56:03.680Z,13.19
2022-10-31T16:58:34.050Z,13.16
2022-10-31T17:01:02.642Z,13.14
2022-10-31T17:03:29.822Z,13.09
2022-10-31T17:05:57.226Z,13.05
2022-10-31T17:08:25.015Z,13.02
2022-10-31T17:10:54.797Z,13.03
2022-10-31T17:13:25.552Z,13.03
2022-10-31T17:15:55.409Z,13.03
2022-10-31T17:18:27.139Z,13.03
2022-10-31T17:21:00.292Z,13.03
2022-10-31T17:23:28.623Z,13.02
2022-10-31T17:25:56.958Z,12.99
2022-10-31T17:28:26.594Z,13.00
2022-10-31T17:30:55.902Z,13.01
2022-10-31T17:33:22.948Z,13.05
2022-10-31T17:35:50.170Z,13.09
2022-10-31T17:38:17.412Z,13.12
2022-10-31T17:40:44.619Z,13.13
2022-10-31T17:43:12.571Z,13.16
2022-10-31T17:45:41.487Z,13.20
2022-10-31T17:48:12.411Z,13.22
2022-10-31T17:50:39.621Z,13.22
2022-10-31T17:53:06.608Z,13.23
2022-10-31T17:55:36.984Z,13.23
2022-10-31T17:58:05.515Z,13.21
2022-10-31T18:00:32.607Z,13.20
2022-10-31T18:03:00.025Z,13.19
2022-10-31T18:05:27.503Z,13.19
2022-10-31T18:07:56.495Z,13.21
2022-10-31T18:10:25.745Z,13.24
2022-10-31T18:12:53.012Z,13.23
2022-10-31T18:15:20.433Z,13.22
2022-10-31T18:17:47.556Z,13.21
2022-10-31T18:20:14.577Z,13.20
2022-10-31T18:22:41.789Z,13.21
2022-10-31T18:25:09.080Z,13.21
2022-10-31T18:27:36.119Z,13.21
2022-10-31T18:30:03.493Z,13.23
2022-10-31T18:32:30.539Z,13.26
2022-10-31T18:34:57.689Z,13.26
2022-10-31T18:37:24.735Z,13.27
2022-10-31T18:39:51.852Z,13.26
2022-10-31T18:42:19.021Z,13.27
2022-10-31T18:44:46.070Z,13.24
2022-10-31T18:47:13.226Z,13.22
2022-10-31T18:49:40.367Z,13.22
2022-10-31T18:52:07.400Z,13.21
2022-10-31T18:54:34.495Z,13.19
2022-10-31T18:57:01.645Z,13.19
2022-10-31T18:59:28.648Z,13.15
2022-10-31T19:01:56.919Z,13.16
2022-10-31T19:04:24.312Z,13.12
2022-10-31T19:06:51.392Z,13.07
2022-10-31T19:09:18.630Z,13.06
2022-10-31T19:11:45.915Z,13.06
2022-10-31T19:14:14.921Z,13.08
2022-10-31T19:16:42.188Z,13.08
2022-10-31T19:19:09.799Z,13.08
2022-10-31T19:21:36.716Z,13.09
2022-10-31T19:24:04.048Z,13.09
2022-10-31T19:26:33.911Z,13.09
2022-10-31T19:29:01.140Z,13.09
2022-10-31T19:31:28.198Z,13.09
2022-10-31T19:33:55.369Z,13.10
2022-10-31T19:36:22.866Z,13.10
2022-10-31T19:38:52.449Z,13.10
2022-10-31T19:41:20.886Z,13.08
2022-10-31T19:43:48.503Z,13.09
2022-10-31T19:46:22.828Z,13.10
2022-10-31T19:49:01.348Z,13.10
2022-10-31T19:51:28.613Z,13.09
2022-10-31T19:53:55.767Z,13.04
2022-10-31T19:56:25.096Z,13.02
2022-10-31T19:58:52.567Z,13.03
2022-10-31T20:01:22.783Z,13.05
2022-10-31T20:03:50.688Z,13.07
2022-10-31T20:06:26.859Z,13.07
2022-10-31T20:08:56.311Z,13.06
2022-10-31T20:11:25.301Z,13.05
2022-10-31T20:13:55.028Z,13.03
2022-10-31T20:16:22.368Z,12.98
2022-10-31T20:18:49.736Z,12.93
2022-10-31T20:21:20.316Z,12.90
2022-10-31T20:23:47.894Z,12.88
2022-10-31T20:26:18.042Z,12.86
2022-10-31T20:28:46.517Z,12.85
2022-10-31T20:31:21.902Z,12.86
2022-10-31T20:33:49.553Z,12.86
2022-10-31T20:36:21.168Z,12.84
2022-10-31T20:38:48.193Z,12.84
2022-10-31T20:41:16.229Z,12.84
2022-10-31T20:43:43.976Z,12.84
2022-10-31T20:46:19.725Z,12.84
2022-10-31T20:48:47.725Z,12.86
2022-10-31T20:51:18.177Z,12.88
2022-10-31T20:53:45.369Z,12.89
2022-10-31T20:56:15.037Z,12.90
2022-10-31T20:58:43.752Z,12.90
2022-10-31T21:01:14.351Z,12.88
2022-10-31T21:03:42.419Z,12.87
2022-10-31T21:06:10.193Z,12.84
2022-10-31T21:08:38.264Z,12.80
2022-10-31T21:11:11.385Z,12.80
2022-10-31T21:13:43.324Z,12.79
2022-10-31T21:16:12.796Z,12.80
2022-10-31T21:18:42.129Z,12.80
2022-10-31T21:21:10.961Z,12.79
2022-10-31T21:23:38.704Z,12.76
2022-10-31T21:26:13.194Z,12.73
2022-10-31T21:28:40.801Z,12.71
2022-10-31T21:31:09.870Z,12.68
2022-10-31T21:33:37.584Z,12.70
2022-10-31T21:36:06.129Z,12.73
2022-10-31T21:38:34.485Z,12.73
2022-10-31T21:41:03.973Z,12.74
2022-10-31T21:43:32.052Z,12.77
2022-10-31T21:46:04.462Z,12.78
2022-10-31T21:48:31.839Z,12.77
2022-10-31T21:51:06.380Z,12.75
2022-10-31T21:53:52.232Z,12.77
2022-10-31T21:56:19.684Z,12.78
2022-10-31T21:58:46.868Z,12.77
2022-10-31T22:01:14.183Z,12.77
2022-10-31T22:03:42.313Z,12.76
2022-10-31T22:06:11.329Z,12.72
2022-10-31T22:08:39.808Z,12.69
2022-10-31T22:11:11.585Z,12.63
2022-10-31T22:13:38.637Z,12.61
2022-10-31T22:16:08.131Z,12.60
2022-10-31T22:18:35.880Z,12.59
2022-10-31T22:21:02.941Z,12.59
2022-10-31T22:23:30.987Z,12.57
2022-10-31T22:26:06.565Z,12.57
2022-10-31T22:28:33.806Z,12.57
2022-10-31T22:31:08.157Z,12.56
2022-10-31T22:33:36.777Z,12.55
2022-10-31T22:36:07.249Z,12.54
2022-10-31T22:38:40.077Z,12.53
2022-10-31T22:41:09.822Z,12.53
2022-10-31T22:43:37.487Z,12.52
2022-10-31T22:46:06.605Z,12.53
2022-10-31T22:48:40.887Z,12.55
2022-10-31T22:51:12.704Z,12.56
2022-10-31T22:53:40.623Z,12.54
2022-10-31T22:56:08.981Z,12.53
2022-10-31T22:58:36.919Z,12.52
2022-10-31T23:01:15.199Z,12.52
2022-10-31T23:03:43.127Z,12.52
2022-10-31T23:06:14.446Z,12.52
2022-10-31T23:08:42.716Z,12.52
2022-10-31T23:11:22.276Z,12.52
2022-10-31T23:14:10.773Z,12.50
2022-10-31T23:16:58.777Z,12.44
2022-10-31T23:19:30.554Z,12.40
2022-10-31T23:22:04.172Z,12.41
2022-10-31T23:24:39.822Z,12.43
2022-10-31T23:27:10.439Z,12.45
2022-10-31T23:29:54.169Z,12.47
2022-10-31T23:32:28.776Z,12.49
2022-10-31T23:34:59.907Z,12.52
2022-10-31T23:37:29.656Z,12.55
2022-10-31T23:39:57.189Z,12.56
2022-10-31T23:42:25.109Z,12.56
2022-10-31T23:44:52.554Z,12.57
2022-10-31T23:47:20.286Z,12.57
2022-10-31T23:49:48.061Z,12.56
2022-10-31T23:52:16.018Z,12.56
2022-10-31T23:54:43.472Z,12.58
2022-10-31T23:57:12.874Z,12.60
2022-10-31T23:59:39.953Z,12.63
